Terminal Aerodrome Forecast
Issued by NWS Louisville, KY

Home | Current Version | Previous Version | Text Only | Print | Product List | Glossary On
Versions: 1 2 3 4 5 6 7 8 9 10 11 12 13 14 15 16 17 18 19 20
000
FTUS43 KLMK 290100 AAA
TAFSDF
TAF AMD
KSDF 290125Z 2901/3006 VRB03KT P6SM FEW040 SCT150 BKN250
     FM290700 VRB03KT 5SM HZ FEW040 SCT250
     FM291400 29006KT P6SM SCT040 SCT250 PROB30 2919/3001 3SM -TSRA
      BKN025CB=

USA.gov is the U.S. government's official web portal to all federal, state and local government web resources and services.